sensor_id;sensor_type;location;lat;lon;timestamp;temperature;humidity
2012;DHT22;1009;51.436;6.972;2023-02-10T00:00:45;4.90;99.90
2012;DHT22;1009;51.436;6.972;2023-02-10T00:03:11;4.90;99.90
2012;DHT22;1009;51.436;6.972;2023-02-10T00:05:39;4.90;99.90
2012;DHT22;1009;51.436;6.972;2023-02-10T00:08:06;4.90;99.90
2012;DHT22;1009;51.436;6.972;2023-02-10T00:10:33;4.90;99.90
2012;DHT22;1009;51.436;6.972;2023-02-10T00:13:00;5.00;99.90
2012;DHT22;1009;51.436;6.972;2023-02-10T00:15:26;5.00;99.90
2012;DHT22;1009;51.436;6.972;2023-02-10T00:17:53;5.10;99.90
2012;DHT22;1009;51.436;6.972;2023-02-10T00:20:20;5.00;99.90
2012;DHT22;1009;51.436;6.972;2023-02-10T00:22:48;5.00;99.90
2012;DHT22;1009;51.436;6.972;2023-02-10T00:25:15;4.90;99.90
2012;DHT22;1009;51.436;6.972;2023-02-10T00:27:41;5.00;99.90
2012;DHT22;1009;51.436;6.972;2023-02-10T00:30:09;5.00;99.90
2012;DHT22;1009;51.436;6.972;2023-02-10T00:32:36;5.00;99.90
2012;DHT22;1009;51.436;6.972;2023-02-10T00:35:08;5.00;99.90
2012;DHT22;1009;51.436;6.972;2023-02-10T00:37:35;5.00;99.90
2012;DHT22;1009;51.436;6.972;2023-02-10T00:40:04;5.00;99.90
2012;DHT22;1009;51.436;6.972;2023-02-10T00:42:36;5.00;99.90
2012;DHT22;1009;51.436;6.972;2023-02-10T00:45:04;5.00;99.90
2012;DHT22;1009;51.436;6.972;2023-02-10T00:47:34;4.90;99.90
2012;DHT22;1009;51.436;6.972;2023-02-10T00:50:03;4.90;99.90
2012;DHT22;1009;51.436;6.972;2023-02-10T00:52:30;4.90;99.90
2012;DHT22;1009;51.436;6.972;2023-02-10T00:55:00;5.00;99.90
2012;DHT22;1009;51.436;6.972;2023-02-10T00:57:29;5.00;99.90
2012;DHT22;1009;51.436;6.972;2023-02-10T00:59:55;5.00;99.90
2012;DHT22;1009;51.436;6.972;2023-02-10T01:02:22;5.10;99.90
2012;DHT22;1009;51.436;6.972;2023-02-10T01:04:49;5.00;99.90
2012;DHT22;1009;51.436;6.972;2023-02-10T01:07:15;5.00;99.90
2012;DHT22;1009;51.436;6.972;2023-02-10T01:09:42;5.00;99.90
2012;DHT22;1009;51.436;6.972;2023-02-10T01:12:09;4.90;99.90
2012;DHT22;1009;51.436;6.972;2023-02-10T01:14:37;4.90;99.90
2012;DHT22;1009;51.436;6.972;2023-02-10T01:17:04;4.80;99.90
2012;DHT22;1009;51.436;6.972;2023-02-10T01:19:30;4.90;99.90
2012;DHT22;1009;51.436;6.972;2023-02-10T01:21:57;5.00;99.90
2012;DHT22;1009;51.436;6.972;2023-02-10T01:24:24;5.00;99.90
2012;DHT22;1009;51.436;6.972;2023-02-10T01:26:50;5.00;99.90
2012;DHT22;1009;51.436;6.972;2023-02-10T01:29:17;4.90;99.90
2012;DHT22;1009;51.436;6.972;2023-02-10T01:31:45;4.90;99.90
2012;DHT22;1009;51.436;6.972;2023-02-10T01:34:12;4.80;99.90
2012;DHT22;1009;51.436;6.972;2023-02-10T01:36:39;4.80;99.90
2012;DHT22;1009;51.436;6.972;2023-02-10T01:39:05;4.80;99.90
2012;DHT22;1009;51.436;6.972;2023-02-10T01:41:33;4.80;99.90
2012;DHT22;1009;51.436;6.972;2023-02-10T01:44:01;4.80;99.90
2012;DHT22;1009;51.436;6.972;2023-02-10T01:46:30;4.80;99.90
2012;DHT22;1009;51.436;6.972;2023-02-10T01:49:01;4.80;99.90
2012;DHT22;1009;51.436;6.972;2023-02-10T01:51:35;4.70;99.90
2012;DHT22;1009;51.436;6.972;2023-02-10T01:54:04;4.70;99.90
2012;DHT22;1009;51.436;6.972;2023-02-10T01:56:32;4.70;99.90
2012;DHT22;1009;51.436;6.972;2023-02-10T01:58:59;4.70;99.90
2012;DHT22;1009;51.436;6.972;2023-02-10T02:01:26;4.70;99.90
2012;DHT22;1009;51.436;6.972;2023-02-10T02:03:54;4.60;99.90
2012;DHT22;1009;51.436;6.972;2023-02-10T02:06:22;4.60;99.90
2012;DHT22;1009;51.436;6.972;2023-02-10T02:08:49;4.70;99.90
2012;DHT22;1009;51.436;6.972;2023-02-10T02:11:22;4.60;99.90
2012;DHT22;1009;51.436;6.972;2023-02-10T02:14:00;4.50;99.90
2012;DHT22;1009;51.436;6.972;2023-02-10T02:16:41;4.50;99.90
2012;DHT22;1009;51.436;6.972;2023-02-10T02:19:23;4.60;99.90
2012;DHT22;1009;51.436;6.972;2023-02-10T02:25:02;4.70;99.90
2012;DHT22;1009;51.436;6.972;2023-02-10T02:27:43;4.70;99.90
2012;DHT22;1009;51.436;6.972;2023-02-10T02:33:14;4.70;99.90
2012;DHT22;1009;51.436;6.972;2023-02-10T02:35:45;4.60;99.90
2012;DHT22;1009;51.436;6.972;2023-02-10T02:38:17;4.50;99.90
2012;DHT22;1009;51.436;6.972;2023-02-10T02:40:43;4.60;99.90
2012;DHT22;1009;51.436;6.972;2023-02-10T02:43:10;4.50;99.90
2012;DHT22;1009;51.436;6.972;2023-02-10T02:45:44;4.40;99.90
2012;DHT22;1009;51.436;6.972;2023-02-10T02:48:25;4.30;99.90
2012;DHT22;1009;51.436;6.972;2023-02-10T02:51:02;4.30;99.90
2012;DHT22;1009;51.436;6.972;2023-02-10T02:53:36;4.20;99.90
2012;DHT22;1009;51.436;6.972;2023-02-10T02:56:14;4.20;99.90
2012;DHT22;1009;51.436;6.972;2023-02-10T02:58:52;4.10;99.90
2012;DHT22;1009;51.436;6.972;2023-02-10T03:01:23;4.10;99.90
2012;DHT22;1009;51.436;6.972;2023-02-10T03:03:54;4.00;99.90
2012;DHT22;1009;51.436;6.972;2023-02-10T03:06:23;3.90;99.90
2012;DHT22;1009;51.436;6.972;2023-02-10T03:08:50;3.80;99.90
2012;DHT22;1009;51.436;6.972;2023-02-10T03:11:17;3.80;99.90
2012;DHT22;1009;51.436;6.972;2023-02-10T03:13:44;3.70;99.90
2012;DHT22;1009;51.436;6.972;2023-02-10T03:16:11;3.70;99.90
2012;DHT22;1009;51.436;6.972;2023-02-10T03:18:37;3.70;99.90
2012;DHT22;1009;51.436;6.972;2023-02-10T03:21:06;3.60;99.90
2012;DHT22;1009;51.436;6.972;2023-02-10T03:23:32;3.70;99.90
2012;DHT22;1009;51.436;6.972;2023-02-10T03:26:00;3.70;99.90
2012;DHT22;1009;51.436;6.972;2023-02-10T03:28:32;3.60;99.90
2012;DHT22;1009;51.436;6.972;2023-02-10T03:31:02;3.60;99.90
2012;DHT22;1009;51.436;6.972;2023-02-10T03:33:29;3.60;99.90
2012;DHT22;1009;51.436;6.972;2023-02-10T03:35:56;3.60;99.90
2012;DHT22;1009;51.436;6.972;2023-02-10T03:38:25;3.60;99.90
2012;DHT22;1009;51.436;6.972;2023-02-10T03:40:52;3.60;99.90
2012;DHT22;1009;51.436;6.972;2023-02-10T03:43:19;3.70;99.90
2012;DHT22;1009;51.436;6.972;2023-02-10T03:45:47;3.70;99.90
2012;DHT22;1009;51.436;6.972;2023-02-10T03:48:14;3.60;99.90
2012;DHT22;1009;51.436;6.972;2023-02-10T03:50:42;3.70;99.90
2012;DHT22;1009;51.436;6.972;2023-02-10T03:53:09;3.70;99.90
2012;DHT22;1009;51.436;6.972;2023-02-10T03:55:37;3.60;99.90
2012;DHT22;1009;51.436;6.972;2023-02-10T03:58:04;3.70;99.90
2012;DHT22;1009;51.436;6.972;2023-02-10T04:00:32;3.60;99.90
2012;DHT22;1009;51.436;6.972;2023-02-10T04:02:58;3.70;99.90
2012;DHT22;1009;51.436;6.972;2023-02-10T04:05:25;3.60;99.90
2012;DHT22;1009;51.436;6.972;2023-02-10T04:07:52;3.60;99.90
2012;DHT22;1009;51.436;6.972;2023-02-10T04:10:19;3.60;99.90
2012;DHT22;1009;51.436;6.972;2023-02-10T04:12:48;3.50;99.90
2012;DHT22;1009;51.436;6.972;2023-02-10T04:15:14;3.50;99.90
2012;DHT22;1009;51.436;6.972;2023-02-10T04:17:41;3.50;99.90
2012;DHT22;1009;51.436;6.972;2023-02-10T04:20:09;3.50;99.90
2012;DHT22;1009;51.436;6.972;2023-02-10T04:22:36;3.50;99.90
2012;DHT22;1009;51.436;6.972;2023-02-10T04:25:03;3.50;99.90
2012;DHT22;1009;51.436;6.972;2023-02-10T04:27:30;3.40;99.90
2012;DHT22;1009;51.436;6.972;2023-02-10T04:29:58;3.50;99.90
2012;DHT22;1009;51.436;6.972;2023-02-10T04:32:25;3.40;99.90
2012;DHT22;1009;51.436;6.972;2023-02-10T04:34:52;3.30;99.90
2012;DHT22;1009;51.436;6.972;2023-02-10T04:37:18;3.30;99.90
2012;DHT22;1009;51.436;6.972;2023-02-10T04:39:45;3.30;99.90
2012;DHT22;1009;51.436;6.972;2023-02-10T04:42:12;3.10;99.90
2012;DHT22;1009;51.436;6.972;2023-02-10T04:44:38;3.10;99.90
2012;DHT22;1009;51.436;6.972;2023-02-10T04:47:07;3.10;99.90
2012;DHT22;1009;51.436;6.972;2023-02-10T04:49:33;3.10;99.90
2012;DHT22;1009;51.436;6.972;2023-02-10T04:52:00;3.10;99.90
2012;DHT22;1009;51.436;6.972;2023-02-10T04:54:27;3.00;99.90
2012;DHT22;1009;51.436;6.972;2023-02-10T04:56:54;3.00;99.90
2012;DHT22;1009;51.436;6.972;2023-02-10T04:59:21;3.00;99.90
2012;DHT22;1009;51.436;6.972;2023-02-10T05:01:51;3.00;99.90
2012;DHT22;1009;51.436;6.972;2023-02-10T05:04:22;3.00;99.90
2012;DHT22;1009;51.436;6.972;2023-02-10T05:06:48;3.00;99.90
2012;DHT22;1009;51.436;6.972;2023-02-10T05:09:15;3.00;99.90
2012;DHT22;1009;51.436;6.972;2023-02-10T05:11:42;3.10;99.90
2012;DHT22;1009;51.436;6.972;2023-02-10T05:14:09;3.10;99.90
2012;DHT22;1009;51.436;6.972;2023-02-10T05:16:35;3.10;99.90
2012;DHT22;1009;51.436;6.972;2023-02-10T05:19:02;3.00;99.90
2012;DHT22;1009;51.436;6.972;2023-02-10T05:21:30;3.10;99.90
2012;DHT22;1009;51.436;6.972;2023-02-10T05:24:00;3.10;99.90
2012;DHT22;1009;51.436;6.972;2023-02-10T05:26:30;3.10;99.90
2012;DHT22;1009;51.436;6.972;2023-02-10T05:28:56;3.10;99.90
2012;DHT22;1009;51.436;6.972;2023-02-10T05:31:23;3.10;99.90
2012;DHT22;1009;51.436;6.972;2023-02-10T05:33:50;3.10;99.90
2012;DHT22;1009;51.436;6.972;2023-02-10T05:36:18;3.10;99.90
2012;DHT22;1009;51.436;6.972;2023-02-10T05:38:46;3.20;99.90
2012;DHT22;1009;51.436;6.972;2023-02-10T05:41:27;3.30;99.90
2012;DHT22;1009;51.436;6.972;2023-02-10T05:43:54;3.30;99.90
2012;DHT22;1009;51.436;6.972;2023-02-10T05:46:21;3.40;99.90
2012;DHT22;1009;51.436;6.972;2023-02-10T05:48:47;3.40;99.90
2012;DHT22;1009;51.436;6.972;2023-02-10T05:51:14;3.40;99.90
2012;DHT22;1009;51.436;6.972;2023-02-10T05:53:41;3.40;99.90
2012;DHT22;1009;51.436;6.972;2023-02-10T05:56:09;3.40;99.90
2012;DHT22;1009;51.436;6.972;2023-02-10T05:58:36;3.40;99.90
2012;DHT22;1009;51.436;6.972;2023-02-10T06:01:06;3.40;99.90
2012;DHT22;1009;51.436;6.972;2023-02-10T06:03:32;3.40;99.90
2012;DHT22;1009;51.436;6.972;2023-02-10T06:05:59;3.40;99.90
2012;DHT22;1009;51.436;6.972;2023-02-10T06:08:26;3.50;99.90
2012;DHT22;1009;51.436;6.972;2023-02-10T06:10:53;3.40;99.90
2012;DHT22;1009;51.436;6.972;2023-02-10T06:13:21;3.50;99.90
2012;DHT22;1009;51.436;6.972;2023-02-10T06:15:50;3.40;99.90
2012;DHT22;1009;51.436;6.972;2023-02-10T06:18:17;3.40;99.90
2012;DHT22;1009;51.436;6.972;2023-02-10T06:20:45;3.40;99.90
2012;DHT22;1009;51.436;6.972;2023-02-10T06:23:12;3.40;99.90
2012;DHT22;1009;51.436;6.972;2023-02-10T06:25:39;3.30;99.90
2012;DHT22;1009;51.436;6.972;2023-02-10T06:28:06;3.30;99.90
2012;DHT22;1009;51.436;6.972;2023-02-10T06:30:34;3.40;99.90
2012;DHT22;1009;51.436;6.972;2023-02-10T06:33:01;3.30;99.90
2012;DHT22;1009;51.436;6.972;2023-02-10T06:35:28;3.30;99.90
2012;DHT22;1009;51.436;6.972;2023-02-10T06:37:54;3.30;99.90
2012;DHT22;1009;51.436;6.972;2023-02-10T06:40:21;3.40;99.90
2012;DHT22;1009;51.436;6.972;2023-02-10T06:42:48;3.50;99.90
2012;DHT22;1009;51.436;6.972;2023-02-10T06:45:14;3.50;99.90
2012;DHT22;1009;51.436;6.972;2023-02-10T06:47:42;3.50;99.90
2012;DHT22;1009;51.436;6.972;2023-02-10T06:50:09;3.60;99.90
2012;DHT22;1009;51.436;6.972;2023-02-10T06:52:37;3.70;99.90
2012;DHT22;1009;51.436;6.972;2023-02-10T06:55:05;3.70;99.90
2012;DHT22;1009;51.436;6.972;2023-02-10T06:57:32;3.70;99.90
2012;DHT22;1009;51.436;6.972;2023-02-10T07:00:01;3.70;99.90
2012;DHT22;1009;51.436;6.972;2023-02-10T07:02:28;3.80;99.90
2012;DHT22;1009;51.436;6.972;2023-02-10T07:04:56;3.80;99.90
2012;DHT22;1009;51.436;6.972;2023-02-10T07:07:23;3.70;99.90
2012;DHT22;1009;51.436;6.972;2023-02-10T07:09:49;3.60;99.90
2012;DHT22;1009;51.436;6.972;2023-02-10T07:12:18;3.60;99.90
2012;DHT22;1009;51.436;6.972;2023-02-10T07:14:45;3.70;99.90
2012;DHT22;1009;51.436;6.972;2023-02-10T07:17:12;3.60;99.90
2012;DHT22;1009;51.436;6.972;2023-02-10T07:19:39;3.60;99.90
2012;DHT22;1009;51.436;6.972;2023-02-10T07:22:07;3.60;99.90
2012;DHT22;1009;51.436;6.972;2023-02-10T07:24:34;3.60;99.90
2012;DHT22;1009;51.436;6.972;2023-02-10T07:27:01;3.60;99.90
2012;DHT22;1009;51.436;6.972;2023-02-10T07:29:28;3.60;99.90
2012;DHT22;1009;51.436;6.972;2023-02-10T07:31:55;3.60;99.90
2012;DHT22;1009;51.436;6.972;2023-02-10T07:34:23;3.60;99.90
2012;DHT22;1009;51.436;6.972;2023-02-10T07:36:50;3.70;99.90
2012;DHT22;1009;51.436;6.972;2023-02-10T07:39:21;3.70;99.90
2012;DHT22;1009;51.436;6.972;2023-02-10T07:41:48;3.70;99.90
2012;DHT22;1009;51.436;6.972;2023-02-10T07:44:15;3.70;99.90
2012;DHT22;1009;51.436;6.972;2023-02-10T07:46:42;3.70;99.90
2012;DHT22;1009;51.436;6.972;2023-02-10T07:49:09;3.70;99.90
2012;DHT22;1009;51.436;6.972;2023-02-10T07:51:36;3.80;99.90
2012;DHT22;1009;51.436;6.972;2023-02-10T07:54:03;3.80;99.90
2012;DHT22;1009;51.436;6.972;2023-02-10T07:56:32;3.80;99.90
2012;DHT22;1009;51.436;6.972;2023-02-10T07:58:58;3.80;99.90
2012;DHT22;1009;51.436;6.972;2023-02-10T08:01:25;3.80;99.90
2012;DHT22;1009;51.436;6.972;2023-02-10T08:03:52;3.70;99.90
2012;DHT22;1009;51.436;6.972;2023-02-10T08:06:19;3.80;99.90
2012;DHT22;1009;51.436;6.972;2023-02-10T08:08:46;3.80;99.90
2012;DHT22;1009;51.436;6.972;2023-02-10T08:11:13;3.80;99.90
2012;DHT22;1009;51.436;6.972;2023-02-10T08:13:41;3.70;99.90
2012;DHT22;1009;51.436;6.972;2023-02-10T08:16:08;3.60;99.90
2012;DHT22;1009;51.436;6.972;2023-02-10T08:18:37;3.70;99.90
2012;DHT22;1009;51.436;6.972;2023-02-10T08:21:04;3.70;99.90
2012;DHT22;1009;51.436;6.972;2023-02-10T08:23:31;3.70;99.90
2012;DHT22;1009;51.436;6.972;2023-02-10T08:25:58;3.70;99.90
2012;DHT22;1009;51.436;6.972;2023-02-10T08:28:28;3.60;99.90
2012;DHT22;1009;51.436;6.972;2023-02-10T08:30:58;3.60;99.90
2012;DHT22;1009;51.436;6.972;2023-02-10T08:33:25;3.60;99.90
2012;DHT22;1009;51.436;6.972;2023-02-10T08:35:52;3.60;99.90
2012;DHT22;1009;51.436;6.972;2023-02-10T08:38:19;3.60;99.90
2012;DHT22;1009;51.436;6.972;2023-02-10T08:40:53;3.60;99.90
2012;DHT22;1009;51.436;6.972;2023-02-10T08:43:20;3.60;99.90
2012;DHT22;1009;51.436;6.972;2023-02-10T08:45:47;3.60;99.90
2012;DHT22;1009;51.436;6.972;2023-02-10T08:48:15;3.60;99.90
2012;DHT22;1009;51.436;6.972;2023-02-10T08:50:41;3.60;99.90
2012;DHT22;1009;51.436;6.972;2023-02-10T08:53:08;3.70;99.90
2012;DHT22;1009;51.436;6.972;2023-02-10T08:55:35;3.70;99.90
2012;DHT22;1009;51.436;6.972;2023-02-10T08:58:02;3.60;99.90
2012;DHT22;1009;51.436;6.972;2023-02-10T09:00:29;3.60;99.90
2012;DHT22;1009;51.436;6.972;2023-02-10T09:02:56;3.60;99.90
2012;DHT22;1009;51.436;6.972;2023-02-10T09:05:24;3.70;99.90
2012;DHT22;1009;51.436;6.972;2023-02-10T09:07:51;3.70;99.90
2012;DHT22;1009;51.436;6.972;2023-02-10T09:10:18;3.80;99.90
2012;DHT22;1009;51.436;6.972;2023-02-10T09:12:45;3.90;99.90
2012;DHT22;1009;51.436;6.972;2023-02-10T09:15:12;4.00;99.90
2012;DHT22;1009;51.436;6.972;2023-02-10T09:17:38;4.10;99.90
2012;DHT22;1009;51.436;6.972;2023-02-10T09:20:06;4.00;99.90
2012;DHT22;1009;51.436;6.972;2023-02-10T09:22:34;4.10;99.90
2012;DHT22;1009;51.436;6.972;2023-02-10T09:25:01;4.20;99.90
2012;DHT22;1009;51.436;6.972;2023-02-10T09:27:27;4.20;99.90
2012;DHT22;1009;51.436;6.972;2023-02-10T09:29:54;4.20;99.90
2012;DHT22;1009;51.436;6.972;2023-02-10T09:32:21;4.40;99.90
2012;DHT22;1009;51.436;6.972;2023-02-10T09:34:48;4.40;99.90
2012;DHT22;1009;51.436;6.972;2023-02-10T09:37:14;4.30;99.90
2012;DHT22;1009;51.436;6.972;2023-02-10T09:39:43;4.20;99.90
2012;DHT22;1009;51.436;6.972;2023-02-10T09:42:17;4.40;99.90
2012;DHT22;1009;51.436;6.972;2023-02-10T09:44:51;4.50;99.90
2012;DHT22;1009;51.436;6.972;2023-02-10T09:47:34;4.60;99.90
2012;DHT22;1009;51.436;6.972;2023-02-10T09:50:11;4.70;99.90
2012;DHT22;1009;51.436;6.972;2023-02-10T09:52:49;4.70;99.90
2012;DHT22;1009;51.436;6.972;2023-02-10T09:55:26;4.80;99.90
2012;DHT22;1009;51.436;6.972;2023-02-10T09:57:58;4.90;99.90
2012;DHT22;1009;51.436;6.972;2023-02-10T10:00:28;5.00;99.90
2012;DHT22;1009;51.436;6.972;2023-02-10T10:02:57;5.10;99.90
2012;DHT22;1009;51.436;6.972;2023-02-10T10:05:36;5.10;99.90
2012;DHT22;1009;51.436;6.972;2023-02-10T10:08:11;5.00;99.90
2012;DHT22;1009;51.436;6.972;2023-02-10T10:10:44;5.10;99.90
2012;DHT22;1009;51.436;6.972;2023-02-10T10:13:13;5.30;99.90
2012;DHT22;1009;51.436;6.972;2023-02-10T10:15:58;5.40;99.90
2012;DHT22;1009;51.436;6.972;2023-02-10T10:18:37;5.50;99.90
2012;DHT22;1009;51.436;6.972;2023-02-10T10:21:10;5.50;99.90
2012;DHT22;1009;51.436;6.972;2023-02-10T10:23:52;5.60;99.90
2012;DHT22;1009;51.436;6.972;2023-02-10T10:26:38;5.90;99.90
2012;DHT22;1009;51.436;6.972;2023-02-10T10:29:20;6.00;99.90
2012;DHT22;1009;51.436;6.972;2023-02-10T10:31:50;6.20;99.90
2012;DHT22;1009;51.436;6.972;2023-02-10T10:34:22;6.30;99.90
2012;DHT22;1009;51.436;6.972;2023-02-10T10:36:54;6.10;99.90
2012;DHT22;1009;51.436;6.972;2023-02-10T10:39:28;6.00;99.90
2012;DHT22;1009;51.436;6.972;2023-02-10T10:41:59;5.90;99.90
2012;DHT22;1009;51.436;6.972;2023-02-10T10:44:29;5.90;99.90
2012;DHT22;1009;51.436;6.972;2023-02-10T10:47:03;5.80;99.90
2012;DHT22;1009;51.436;6.972;2023-02-10T10:49:34;6.00;99.90
2012;DHT22;1009;51.436;6.972;2023-02-10T10:52:00;6.00;99.90
2012;DHT22;1009;51.436;6.972;2023-02-10T10:54:28;6.00;99.90
2012;DHT22;1009;51.436;6.972;2023-02-10T10:57:00;6.10;99.90
2012;DHT22;1009;51.436;6.972;2023-02-10T10:59:33;6.30;99.90
2012;DHT22;1009;51.436;6.972;2023-02-10T11:02:11;6.50;99.90
2012;DHT22;1009;51.436;6.972;2023-02-10T11:04:38;6.70;99.90
2012;DHT22;1009;51.436;6.972;2023-02-10T11:07:10;6.90;99.90
2012;DHT22;1009;51.436;6.972;2023-02-10T11:09:40;6.90;99.90
2012;DHT22;1009;51.436;6.972;2023-02-10T11:12:16;7.20;99.90
2012;DHT22;1009;51.436;6.972;2023-02-10T11:14:48;7.20;99.90
2012;DHT22;1009;51.436;6.972;2023-02-10T11:17:22;7.20;99.90
2012;DHT22;1009;51.436;6.972;2023-02-10T11:19:55;7.20;99.90
2012;DHT22;1009;51.436;6.972;2023-02-10T11:22:22;7.20;99.90
2012;DHT22;1009;51.436;6.972;2023-02-10T11:24:51;7.40;99.90
2012;DHT22;1009;51.436;6.972;2023-02-10T11:27:20;7.20;99.90
2012;DHT22;1009;51.436;6.972;2023-02-10T11:29:48;7.20;99.90
2012;DHT22;1009;51.436;6.972;2023-02-10T11:32:18;7.40;99.90
2012;DHT22;1009;51.436;6.972;2023-02-10T11:34:46;7.60;99.90
2012;DHT22;1009;51.436;6.972;2023-02-10T11:37:21;7.60;99.90
2012;DHT22;1009;51.436;6.972;2023-02-10T11:39:49;7.40;99.90
2012;DHT22;1009;51.436;6.972;2023-02-10T11:42:18;7.20;99.90
2012;DHT22;1009;51.436;6.972;2023-02-10T11:44:58;7.30;99.90
2012;DHT22;1009;51.436;6.972;2023-02-10T11:47:26;7.20;99.90
2012;DHT22;1009;51.436;6.972;2023-02-10T11:49:53;7.10;99.90
2012;DHT22;1009;51.436;6.972;2023-02-10T11:52:22;7.30;99.90
2012;DHT22;1009;51.436;6.972;2023-02-10T11:54:50;7.30;99.90
2012;DHT22;1009;51.436;6.972;2023-02-10T11:57:41;7.30;99.90
2012;DHT22;1009;51.436;6.972;2023-02-10T12:00:35;7.40;99.90
2012;DHT22;1009;51.436;6.972;2023-02-10T12:03:33;7.90;99.90
2012;DHT22;1009;51.436;6.972;2023-02-10T12:06:05;8.10;99.90
2012;DHT22;1009;51.436;6.972;2023-02-10T12:08:40;8.30;99.90
2012;DHT22;1009;51.436;6.972;2023-02-10T12:11:13;8.60;99.90
2012;DHT22;1009;51.436;6.972;2023-02-10T12:13:48;8.60;99.90
2012;DHT22;1009;51.436;6.972;2023-02-10T12:16:25;8.60;99.90
2012;DHT22;1009;51.436;6.972;2023-02-10T12:19:00;8.60;99.90
2012;DHT22;1009;51.436;6.972;2023-02-10T12:21:49;8.60;99.90
2012;DHT22;1009;51.436;6.972;2023-02-10T12:27:14;8.20;99.90
2012;DHT22;1009;51.436;6.972;2023-02-10T12:29:51;8.00;99.90
2012;DHT22;1009;51.436;6.972;2023-02-10T12:32:29;7.80;99.90
2012;DHT22;1009;51.436;6.972;2023-02-10T12:35:10;7.90;99.90
2012;DHT22;1009;51.436;6.972;2023-02-10T12:37:48;8.00;99.90
2012;DHT22;1009;51.436;6.972;2023-02-10T12:40:37;8.20;99.90
